createdAt,value
2023-01-25T00:03:48.148Z,3.53
2023-01-25T00:06:33.063Z,4.07
2023-01-25T00:09:18.586Z,3.90
2023-01-25T00:12:03.735Z,3.42
2023-01-25T00:14:48.409Z,4.38
2023-01-25T00:20:17.753Z,3.72
2023-01-25T00:23:02.822Z,4.25
2023-01-25T00:28:32.311Z,3.90
2023-01-25T00:34:22.896Z,3.20
2023-01-25T00:37:18.936Z,3.38
2023-01-25T00:40:05.078Z,4.10
2023-01-25T00:42:49.876Z,3.50
2023-01-25T00:45:34.530Z,3.47
2023-01-25T00:48:19.632Z,4.00
2023-01-25T00:51:04.977Z,4.00
2023-01-25T00:53:50.142Z,4.03
2023-01-25T00:56:35.231Z,3.88
2023-01-25T00:59:20.614Z,3.88
2023-01-25T01:04:49.891Z,3.60
2023-01-25T01:07:34.781Z,3.03
2023-01-25T01:13:04.119Z,3.03
2023-01-25T01:15:48.962Z,3.45
2023-01-25T01:21:36.660Z,2.95
2023-01-25T01:27:07.569Z,3.00
2023-01-25T01:32:37.292Z,3.20
2023-01-25T01:35:22.284Z,3.58
2023-01-25T01:40:51.731Z,2.97
2023-01-25T01:43:37.047Z,3.05
2023-01-25T01:46:32.222Z,3.30
2023-01-25T01:49:29.871Z,4.70
2023-01-25T01:52:35.700Z,4.47
2023-01-25T01:55:23.909Z,4.50
2023-01-25T01:58:09.651Z,5.20
2023-01-25T02:03:40.034Z,3.83
2023-01-25T02:06:30.990Z,4.18
2023-01-25T02:09:20.413Z,3.58
2023-01-25T02:12:08.575Z,4.90
2023-01-25T02:14:53.930Z,4.22
2023-01-25T02:17:40.976Z,4.03
2023-01-25T02:20:37.652Z,4.22
2023-01-25T02:23:35.523Z,3.47
2023-01-25T02:29:08.508Z,3.70
2023-01-25T02:32:02.555Z,4.28
2023-01-25T02:34:47.072Z,4.63
2023-01-25T02:37:31.991Z,4.28
2023-01-25T02:40:18.354Z,4.20
2023-01-25T02:43:03.702Z,4.40
2023-01-25T02:48:36.888Z,4.18
2023-01-25T02:51:23.842Z,4.13
2023-01-25T02:54:10.926Z,4.72
2023-01-25T02:56:56.331Z,4.78
2023-01-25T02:59:43.227Z,4.00
2023-01-25T03:02:29.177Z,4.03
2023-01-25T03:07:58.725Z,4.50
2023-01-25T03:10:43.940Z,4.22
2023-01-25T03:16:14.266Z,4.43
2023-01-25T03:19:02.143Z,4.47
2023-01-25T03:21:46.799Z,4.05
2023-01-25T03:24:32.409Z,4.40
2023-01-25T03:27:17.923Z,4.32
2023-01-25T03:30:07.340Z,5.13
2023-01-25T03:32:52.351Z,4.68
2023-01-25T03:35:37.936Z,4.70
2023-01-25T03:38:24.180Z,5.10
2023-01-25T03:41:09.603Z,4.22
2023-01-25T03:43:54.453Z,5.15
2023-01-25T03:46:40.545Z,4.90
2023-01-25T03:49:25.214Z,4.70
2023-01-25T03:52:11.190Z,4.95
2023-01-25T03:54:59.138Z,4.72
2023-01-25T03:57:44.168Z,4.45
2023-01-25T04:03:19.271Z,4.68
2023-01-25T04:06:05.471Z,4.30
2023-01-25T04:08:51.042Z,4.50
2023-01-25T04:11:37.610Z,4.05
2023-01-25T04:14:38.761Z,4.60
2023-01-25T04:17:28.115Z,4.90
2023-01-25T04:23:06.349Z,4.55
2023-01-25T04:25:59.233Z,4.60
2023-01-25T04:28:44.633Z,5.50
2023-01-25T04:31:29.813Z,5.78
2023-01-25T04:34:16.108Z,4.85
2023-01-25T04:37:01.072Z,5.57
2023-01-25T04:39:50.472Z,6.25
2023-01-25T04:42:35.139Z,5.93
2023-01-25T04:45:19.989Z,6.78
2023-01-25T04:48:09.241Z,6.55
2023-01-25T04:50:55.934Z,8.80
2023-01-25T04:53:41.761Z,7.30
2023-01-25T04:56:27.967Z,6.50
2023-01-25T04:59:14.502Z,6.70
2023-01-25T05:01:59.429Z,6.03
2023-01-25T05:04:45.579Z,5.97
2023-01-25T05:07:30.521Z,5.65
2023-01-25T05:13:18.297Z,5.93
2023-01-25T05:16:04.334Z,5.97
2023-01-25T05:18:49.517Z,5.97
2023-01-25T05:21:58.415Z,5.80
2023-01-25T05:24:47.564Z,5.15
2023-01-25T05:27:33.153Z,6.15
2023-01-25T05:30:51.857Z,5.68
2023-01-25T05:33:43.226Z,5.47
2023-01-25T05:39:12.661Z,5.45
2023-01-25T05:41:57.701Z,5.05
2023-01-25T05:47:27.697Z,5.45
2023-01-25T05:50:13.995Z,7.25
2023-01-25T05:53:25.016Z,6.50
2023-01-25T05:56:10.829Z,6.35
2023-01-25T05:58:57.989Z,6.97
2023-01-25T06:01:43.705Z,6.22
2023-01-25T06:04:28.716Z,6.28
2023-01-25T06:07:13.817Z,5.88
2023-01-25T06:09:59.232Z,6.13
2023-01-25T06:12:43.859Z,5.70
2023-01-25T06:15:28.703Z,6.63
2023-01-25T06:18:26.344Z,5.88
2023-01-25T06:21:27.607Z,5.18
2023-01-25T06:24:12.852Z,6.00
2023-01-25T06:26:57.665Z,5.32
2023-01-25T06:29:42.965Z,5.57
2023-01-25T06:35:15.614Z,6.05
2023-01-25T06:38:00.945Z,6.10
2023-01-25T06:40:45.796Z,5.72
2023-01-25T06:46:16.388Z,5.35
2023-01-25T06:49:00.926Z,4.97
2023-01-25T06:51:46.115Z,4.95
2023-01-25T06:57:15.788Z,4.63
2023-01-25T07:00:00.785Z,4.90
2023-01-25T07:02:45.841Z,4.78
2023-01-25T07:05:30.725Z,5.63
2023-01-25T07:11:04.328Z,5.38
2023-01-25T07:13:49.457Z,5.07
2023-01-25T07:16:37.860Z,5.28
2023-01-25T07:19:22.827Z,4.78
2023-01-25T07:24:53.271Z,3.97
2023-01-25T07:27:38.161Z,4.47
2023-01-25T07:33:11.395Z,3.90
2023-01-25T07:36:02.300Z,4.38
2023-01-25T07:41:32.774Z,5.80
2023-01-25T07:44:17.576Z,5.55
2023-01-25T07:47:05.153Z,5.93
2023-01-25T07:49:49.713Z,5.97
2023-01-25T07:52:34.164Z,5.95
2023-01-25T07:55:19.108Z,4.68
2023-01-25T08:00:48.461Z,4.57
2023-01-25T08:03:33.196Z,4.57
2023-01-25T08:06:27.033Z,4.50
2023-01-25T08:09:16.666Z,4.47
2023-01-25T08:12:01.615Z,4.47
2023-01-25T08:17:32.115Z,6.28
2023-01-25T08:20:16.980Z,5.70
2023-01-25T08:23:01.877Z,5.10
2023-01-25T08:25:46.834Z,4.57
2023-01-25T08:31:45.295Z,3.38
2023-01-25T08:34:31.479Z,3.75
2023-01-25T08:37:16.556Z,5.05
2023-01-25T08:42:47.291Z,4.22
2023-01-25T08:45:36.865Z,4.28
2023-01-25T08:48:21.701Z,4.50
2023-01-25T08:54:09.485Z,4.18
2023-01-25T08:56:54.514Z,4.82
2023-01-25T08:59:39.541Z,4.13
2023-01-25T09:02:24.771Z,4.80
2023-01-25T09:05:09.677Z,5.70
2023-01-25T09:07:54.522Z,7.70
2023-01-25T09:10:39.393Z,7.93
2023-01-25T09:13:24.355Z,7.80
2023-01-25T09:19:01.443Z,6.07
2023-01-25T09:24:37.015Z,6.47
2023-01-25T09:27:21.875Z,7.32
2023-01-25T09:30:16.568Z,7.05
2023-01-25T09:33:05.246Z,6.90
2023-01-25T09:35:50.107Z,6.60
2023-01-25T09:41:36.102Z,6.40
2023-01-25T09:44:33.251Z,7.07
2023-01-25T09:47:55.391Z,6.50
2023-01-25T09:50:59.549Z,7.07
2023-01-25T09:53:51.971Z,6.70
2023-01-25T09:56:39.356Z,6.28
2023-01-25T09:59:30.062Z,6.05
2023-01-25T10:02:37.826Z,6.35
2023-01-25T10:05:27.779Z,6.72
2023-01-25T10:08:39.699Z,6.10
2023-01-25T10:11:33.738Z,6.05
2023-01-25T10:14:20.736Z,5.72
2023-01-25T10:17:13.516Z,7.53
2023-01-25T10:20:17.650Z,6.10
2023-01-25T10:23:40.777Z,5.93
2023-01-25T10:26:32.359Z,7.03
2023-01-25T10:29:30.491Z,6.63
2023-01-25T10:32:31.336Z,6.57
2023-01-25T10:35:29.453Z,6.93
2023-01-25T10:38:38.915Z,5.97
2023-01-25T10:41:28.153Z,5.88
2023-01-25T10:44:23.869Z,6.28
2023-01-25T10:47:23.045Z,5.57
2023-01-25T10:50:08.678Z,7.28
2023-01-25T10:52:58.170Z,7.43
2023-01-25T10:55:54.488Z,7.97
2023-01-25T10:58:42.739Z,7.32
2023-01-25T11:01:33.285Z,7.53
2023-01-25T11:04:37.625Z,7.28
2023-01-25T11:07:28.339Z,6.57
2023-01-25T11:10:32.757Z,8.02
2023-01-25T11:13:24.700Z,7.82
2023-01-25T11:16:40.108Z,7.97
2023-01-25T11:19:28.073Z,7.68
2023-01-25T11:22:18.719Z,7.40
2023-01-25T11:25:38.700Z,7.15
2023-01-25T11:28:24.400Z,6.80
2023-01-25T11:31:12.426Z,7.45
2023-01-25T11:33:57.382Z,7.07
2023-01-25T11:37:21.795Z,7.00
2023-01-25T11:40:12.557Z,6.60
2023-01-25T11:43:20.104Z,5.63
2023-01-25T11:46:23.167Z,5.95
2023-01-25T11:49:26.719Z,6.63
2023-01-25T11:52:38.737Z,8.20
2023-01-25T11:55:47.884Z,7.25
2023-01-25T11:58:55.456Z,7.78
2023-01-25T12:02:20.236Z,7.50
2023-01-25T12:05:50.295Z,7.38
2023-01-25T12:09:18.794Z,5.88
2023-01-25T12:12:09.351Z,6.32
2023-01-25T12:15:15.330Z,6.72
2023-01-25T12:18:41.357Z,6.53
2023-01-25T12:22:03.927Z,5.93
2023-01-25T12:28:07.474Z,7.20
2023-01-25T12:31:00.875Z,7.70
2023-01-25T12:33:46.195Z,6.32
2023-01-25T12:36:36.441Z,6.80
2023-01-25T12:39:31.617Z,6.85
2023-01-25T12:42:25.357Z,7.30
2023-01-25T12:45:15.811Z,7.57
2023-01-25T12:48:09.304Z,7.30
2023-01-25T12:50:56.750Z,6.93
2023-01-25T12:53:48.818Z,6.60
2023-01-25T12:56:54.120Z,6.93
2023-01-25T12:59:47.982Z,7.15
2023-01-25T13:03:02.961Z,7.05
2023-01-25T13:05:59.945Z,5.85
2023-01-25T13:08:50.772Z,6.07
2023-01-25T13:11:45.953Z,6.68
2023-01-25T13:14:38.019Z,6.20
2023-01-25T13:17:32.575Z,6.28
2023-01-25T13:20:40.274Z,7.03
2023-01-25T13:23:47.439Z,8.13
2023-01-25T13:26:54.613Z,8.70
2023-01-25T13:29:46.394Z,10.02
2023-01-25T13:32:31.169Z,9.98
2023-01-25T13:35:44.456Z,9.50
2023-01-25T13:38:32.535Z,9.50
2023-01-25T13:41:17.808Z,10.00
2023-01-25T13:44:22.429Z,8.07
2023-01-25T13:47:12.006Z,9.88
2023-01-25T13:50:23.800Z,9.50
2023-01-25T13:53:14.683Z,10.15
2023-01-25T13:55:59.581Z,9.63
2023-01-25T13:58:47.328Z,10.07
2023-01-25T14:01:35.325Z,12.77
2023-01-25T14:04:21.064Z,11.18
2023-01-25T14:07:09.487Z,9.88
2023-01-25T14:09:56.242Z,9.77
2023-01-25T14:12:43.278Z,10.15
2023-01-25T14:15:30.620Z,9.20
2023-01-25T14:18:18.600Z,8.50
2023-01-25T14:21:17.240Z,9.10
2023-01-25T14:24:11.162Z,7.88
2023-01-25T14:26:56.190Z,8.05
2023-01-25T14:29:47.300Z,11.27
2023-01-25T14:32:32.347Z,10.23
2023-01-25T14:35:42.578Z,11.77
2023-01-25T14:38:35.122Z,11.05
2023-01-25T14:41:31.811Z,24.77
2023-01-25T14:44:16.703Z,48.92
2023-01-25T14:47:24.542Z,56.80
2023-01-25T14:50:34.549Z,31.10
2023-01-25T14:53:24.537Z,18.85
2023-01-25T14:56:33.609Z,11.48
2023-01-25T14:59:36.215Z,9.50
2023-01-25T15:02:30.394Z,8.90
2023-01-25T15:05:23.386Z,8.20
2023-01-25T15:08:07.961Z,7.85
2023-01-25T15:10:55.136Z,10.18
2023-01-25T15:13:39.970Z,10.82
2023-01-25T15:16:34.868Z,11.10
2023-01-25T15:19:29.799Z,10.23
2023-01-25T15:22:14.925Z,10.00
2023-01-25T15:24:59.791Z,9.48
2023-01-25T15:27:44.374Z,8.88
2023-01-25T15:30:29.306Z,8.68
2023-01-25T15:33:24.025Z,10.77
2023-01-25T15:36:09.665Z,12.60
2023-01-25T15:38:54.762Z,11.23
2023-01-25T15:41:39.892Z,9.70
2023-01-25T15:44:24.550Z,10.13
2023-01-25T15:47:10.361Z,11.82
2023-01-25T15:49:55.005Z,12.80
2023-01-25T15:52:40.241Z,12.75
2023-01-25T15:58:23.049Z,9.57
2023-01-25T16:01:08.246Z,12.20
2023-01-25T16:06:49.425Z,25.63
2023-01-25T16:09:34.814Z,39.05
2023-01-25T16:15:04.947Z,19.17
2023-01-25T16:17:49.499Z,17.25
2023-01-25T16:20:34.570Z,18.02
2023-01-25T16:23:19.413Z,21.42
2023-01-25T16:31:39.197Z,9.52
2023-01-25T16:34:24.313Z,8.45
2023-01-25T16:37:17.812Z,10.52
2023-01-25T16:40:02.948Z,13.05
2023-01-25T16:42:47.519Z,12.25
2023-01-25T16:48:17.032Z,12.80
2023-01-25T16:53:50.294Z,9.15
2023-01-25T16:56:34.921Z,8.15
2023-01-25T17:02:06.235Z,8.88
2023-01-25T17:04:51.032Z,9.27
2023-01-25T17:07:36.797Z,9.15
2023-01-25T17:10:21.538Z,12.32
2023-01-25T17:15:55.851Z,12.65
2023-01-25T17:18:40.452Z,11.45
2023-01-25T17:21:26.126Z,10.27
2023-01-25T17:24:16.859Z,8.82
2023-01-25T17:27:02.364Z,8.93
2023-01-25T17:29:47.513Z,10.35
2023-01-25T17:32:32.149Z,9.18
2023-01-25T17:35:17.133Z,11.65
2023-01-25T17:38:02.082Z,13.15
2023-01-25T17:40:46.705Z,12.20
2023-01-25T17:46:25.769Z,8.35
2023-01-25T17:49:12.625Z,6.60
2023-01-25T17:51:57.453Z,6.20
2023-01-25T17:57:30.496Z,4.85
2023-01-25T18:00:15.854Z,6.65
2023-01-25T18:03:00.960Z,6.72
2023-01-25T18:05:46.160Z,5.88
2023-01-25T18:08:30.955Z,6.95
2023-01-25T18:11:18.813Z,7.18
2023-01-25T18:14:08.246Z,7.55
2023-01-25T18:16:53.354Z,7.78
2023-01-25T18:22:22.935Z,9.25
2023-01-25T18:28:13.519Z,7.72
2023-01-25T18:31:01.116Z,7.43
2023-01-25T18:33:46.179Z,6.90
2023-01-25T18:39:15.644Z,6.65
2023-01-25T18:44:47.622Z,8.32
2023-01-25T18:47:32.492Z,8.57
2023-01-25T18:50:17.132Z,8.60
2023-01-25T18:53:02.038Z,8.13
2023-01-25T18:56:04.625Z,7.57
2023-01-25T18:58:50.374Z,6.70
2023-01-25T19:01:35.362Z,6.70
2023-01-25T19:07:05.204Z,6.90
2023-01-25T19:12:34.689Z,7.47
2023-01-25T19:18:04.271Z,6.25
2023-01-25T19:20:48.727Z,6.20
2023-01-25T19:26:23.080Z,6.07
2023-01-25T19:29:08.776Z,7.10
2023-01-25T19:31:53.890Z,5.88
2023-01-25T19:37:23.501Z,7.03
2023-01-25T19:40:09.036Z,8.05
2023-01-25T19:42:53.887Z,7.00
2023-01-25T19:45:38.482Z,7.13
2023-01-25T19:48:23.528Z,7.15
2023-01-25T19:54:06.139Z,6.45
2023-01-25T19:56:51.006Z,5.78
2023-01-25T20:02:20.581Z,6.07
2023-01-25T20:05:05.639Z,6.18
2023-01-25T20:07:50.333Z,6.95
2023-01-25T20:10:34.997Z,7.28
2023-01-25T20:13:20.195Z,6.50
2023-01-25T20:16:05.775Z,5.80
2023-01-25T20:18:50.772Z,6.53
2023-01-25T20:21:37.496Z,5.80
2023-01-25T20:24:22.443Z,5.82
2023-01-25T20:27:07.699Z,5.80
2023-01-25T20:29:53.202Z,6.03
2023-01-25T20:32:37.962Z,5.65
2023-01-25T20:35:22.814Z,6.07
2023-01-25T20:38:07.601Z,5.57
2023-01-25T20:40:52.205Z,5.90
2023-01-25T20:43:37.064Z,7.20
2023-01-25T20:49:09.831Z,7.25
2023-01-25T20:51:54.411Z,7.60
2023-01-25T20:54:40.982Z,7.10
2023-01-25T20:57:25.807Z,6.00
2023-01-25T21:00:11.099Z,5.78
2023-01-25T21:02:55.692Z,5.57
2023-01-25T21:08:32.919Z,5.05
2023-01-25T21:11:18.163Z,6.88
2023-01-25T21:14:03.488Z,6.38
2023-01-25T21:16:48.516Z,7.28
2023-01-25T21:22:18.993Z,7.10
2023-01-25T21:25:04.182Z,6.88
2023-01-25T21:30:33.319Z,6.25
2023-01-25T21:33:18.555Z,6.60
2023-01-25T21:36:07.832Z,5.95
2023-01-25T21:38:54.413Z,5.68
2023-01-25T21:41:39.518Z,7.22
2023-01-25T21:47:31.650Z,5.32
2023-01-25T21:50:35.157Z,5.70
2023-01-25T21:53:20.111Z,6.18
2023-01-25T21:56:05.048Z,6.65
2023-01-25T21:58:50.310Z,8.57
2023-01-25T22:01:34.958Z,7.18
2023-01-25T22:04:21.451Z,7.20
2023-01-25T22:07:08.027Z,5.57
2023-01-25T22:09:52.577Z,6.53
2023-01-25T22:12:37.331Z,6.40
2023-01-25T22:15:22.121Z,6.00
2023-01-25T22:18:07.070Z,6.40
2023-01-25T22:20:59.166Z,5.80
2023-01-25T22:23:44.928Z,6.05
2023-01-25T22:26:38.690Z,5.32
2023-01-25T22:29:24.715Z,6.60
2023-01-25T22:32:09.668Z,6.05
2023-01-25T22:34:54.669Z,5.65
2023-01-25T22:37:39.701Z,5.72
2023-01-25T22:40:24.832Z,5.78
2023-01-25T22:43:09.446Z,6.13
2023-01-25T22:48:38.809Z,6.50
2023-01-25T22:54:10.295Z,5.03
2023-01-25T22:56:54.696Z,4.80
2023-01-25T22:59:39.581Z,5.32
2023-01-25T23:02:24.217Z,5.15
2023-01-25T23:05:08.850Z,5.20
2023-01-25T23:10:39.345Z,5.45
2023-01-25T23:13:24.216Z,5.22
2023-01-25T23:16:09.696Z,5.53
2023-01-25T23:18:54.546Z,5.53
2023-01-25T23:21:40.574Z,4.90
2023-01-25T23:24:27.432Z,5.25
2023-01-25T23:27:11.925Z,5.22
2023-01-25T23:32:50.670Z,5.18
2023-01-25T23:35:35.565Z,5.75
2023-01-25T23:38:20.515Z,6.30
2023-01-25T23:41:06.140Z,5.57
2023-01-25T23:43:51.323Z,5.32
2023-01-25T23:46:36.471Z,5.47
2023-01-25T23:49:21.326Z,5.53
2023-01-25T23:52:05.792Z,5.68
2023-01-25T23:54:50.659Z,5.25
